createdAt,value
2023-04-27T00:01:52.986Z,2.67
2023-04-27T00:04:20.844Z,2.72
2023-04-27T00:06:48.809Z,2.75
2023-04-27T00:09:16.508Z,2.77
2023-04-27T00:11:44.332Z,2.77
2023-04-27T00:14:11.970Z,2.77
2023-04-27T00:16:39.655Z,2.75
2023-04-27T00:19:09.059Z,2.72
2023-04-27T00:21:36.697Z,2.68
2023-04-27T00:24:04.488Z,2.64
2023-04-27T00:26:32.549Z,2.61
2023-04-27T00:29:00.167Z,2.58
2023-04-27T00:31:27.846Z,2.55
2023-04-27T00:33:55.483Z,2.56
2023-04-27T00:36:23.071Z,2.60
2023-04-27T00:38:50.715Z,2.65
2023-04-27T00:41:18.301Z,2.70
2023-04-27T00:43:46.228Z,2.73
2023-04-27T00:46:14.218Z,2.76
2023-04-27T00:48:41.961Z,2.78
2023-04-27T00:51:09.589Z,2.77
2023-04-27T00:53:37.426Z,2.77
2023-04-27T00:56:05.906Z,2.74
2023-04-27T00:58:33.562Z,2.72
2023-04-27T01:01:01.303Z,2.70
2023-04-27T01:03:29.129Z,2.67
2023-04-27T01:05:59.322Z,2.63
2023-04-27T01:08:28.431Z,2.60
2023-04-27T01:10:56.391Z,2.60
2023-04-27T01:13:24.484Z,2.63
2023-04-27T01:15:52.148Z,2.69
2023-04-27T01:18:19.773Z,2.72
2023-04-27T01:20:47.444Z,2.76
2023-04-27T01:23:17.238Z,2.77
2023-04-27T01:25:45.284Z,2.78
2023-04-27T01:28:12.910Z,2.76
2023-04-27T01:30:40.582Z,2.72
2023-04-27T01:33:08.231Z,2.70
2023-04-27T01:35:36.194Z,2.66
2023-04-27T01:38:03.799Z,2.63
2023-04-27T01:40:31.407Z,2.60
2023-04-27T01:42:59.027Z,2.57
2023-04-27T01:45:26.770Z,2.58
2023-04-27T01:47:54.377Z,2.62
2023-04-27T01:50:22.122Z,2.68
2023-04-27T01:52:49.802Z,2.74
2023-04-27T01:55:17.478Z,2.79
2023-04-27T01:57:45.130Z,2.80
2023-04-27T02:00:13.419Z,2.81
2023-04-27T02:02:41.414Z,2.80
2023-04-27T02:05:09.892Z,2.80
2023-04-27T02:07:37.536Z,2.80
2023-04-27T02:10:05.848Z,2.79
2023-04-27T02:12:33.466Z,2.78
2023-04-27T02:15:01.101Z,2.74
2023-04-27T02:17:29.607Z,2.71
2023-04-27T02:19:57.721Z,2.69
2023-04-27T02:22:25.404Z,2.71
2023-04-27T02:24:53.155Z,2.75
2023-04-27T02:27:20.777Z,2.79
2023-04-27T02:29:48.955Z,2.80
2023-04-27T02:32:17.101Z,2.80
2023-04-27T02:34:44.886Z,2.78
2023-04-27T02:37:12.491Z,2.75
2023-04-27T02:39:40.086Z,2.71
2023-04-27T02:42:07.725Z,2.66
2023-04-27T02:44:35.480Z,2.60
2023-04-27T02:47:03.145Z,2.53
2023-04-27T02:49:30.810Z,2.47
2023-04-27T02:51:58.393Z,2.41
2023-04-27T02:54:26.126Z,2.36
2023-04-27T02:56:53.727Z,2.35
2023-04-27T02:59:21.408Z,2.35
2023-04-27T03:01:49.209Z,2.33
2023-04-27T03:04:17.968Z,2.28
2023-04-27T03:06:45.764Z,2.24
2023-04-27T03:09:14.011Z,2.18
2023-04-27T03:11:41.839Z,2.10
2023-04-27T03:14:09.596Z,2.02
2023-04-27T03:16:37.249Z,1.95
2023-04-27T03:19:04.947Z,1.88
2023-04-27T03:21:32.767Z,1.80
2023-04-27T03:24:00.467Z,1.74
2023-04-27T03:26:28.087Z,1.68
2023-04-27T03:28:56.056Z,1.63
2023-04-27T03:31:23.885Z,1.56
2023-04-27T03:33:51.993Z,1.54
2023-04-27T03:36:19.602Z,1.56
2023-04-27T03:38:47.498Z,1.61
2023-04-27T03:41:15.113Z,1.65
2023-04-27T03:43:42.742Z,1.69
2023-04-27T03:46:10.440Z,1.72
2023-04-27T03:48:38.131Z,1.75
2023-04-27T03:51:06.825Z,1.75
2023-04-27T03:53:34.922Z,1.74
2023-04-27T03:56:03.084Z,1.73
2023-04-27T03:58:30.898Z,1.71
2023-04-27T04:00:58.791Z,1.68
2023-04-27T04:03:26.487Z,1.67
2023-04-27T04:05:54.234Z,1.66
2023-04-27T04:08:21.883Z,1.67
2023-04-27T04:10:49.496Z,1.72
2023-04-27T04:13:17.138Z,1.78
2023-04-27T04:15:44.786Z,1.83
2023-04-27T04:18:12.572Z,1.86
2023-04-27T04:20:40.153Z,1.89
2023-04-27T04:23:07.768Z,1.91
2023-04-27T04:25:35.448Z,1.92
2023-04-27T04:28:03.093Z,1.92
2023-04-27T04:30:30.707Z,1.92
2023-04-27T04:32:58.773Z,1.91
2023-04-27T04:35:26.819Z,1.91
2023-04-27T04:37:54.430Z,1.91
2023-04-27T04:40:22.130Z,1.93
2023-04-27T04:42:49.750Z,1.97
2023-04-27T04:45:17.473Z,2.06
2023-04-27T04:47:45.187Z,2.18
2023-04-27T04:50:13.303Z,2.27
2023-04-27T04:52:41.020Z,2.35
2023-04-27T04:55:09.248Z,2.42
2023-04-27T04:57:37.397Z,2.48
2023-04-27T05:00:07.842Z,2.53
2023-04-27T05:02:35.541Z,2.59
2023-04-27T05:05:03.540Z,2.64
2023-04-27T05:07:31.245Z,2.71
2023-04-27T05:09:58.912Z,2.84
2023-04-27T05:12:26.579Z,2.99
2023-04-27T05:14:54.185Z,3.11
2023-04-27T05:17:21.824Z,3.22
2023-04-27T05:19:49.446Z,3.30
2023-04-27T05:22:17.058Z,3.37
2023-04-27T05:24:44.734Z,3.44
2023-04-27T05:27:13.759Z,3.51
2023-04-27T05:29:41.453Z,3.58
2023-04-27T05:32:09.737Z,3.68
2023-04-27T05:34:37.574Z,3.80
2023-04-27T05:37:05.435Z,3.90
2023-04-27T05:39:33.216Z,3.97
2023-04-27T05:42:02.676Z,4.04
2023-04-27T05:44:31.094Z,4.10
2023-04-27T05:46:58.773Z,4.14
2023-04-27T05:49:26.718Z,4.18
2023-04-27T05:51:54.401Z,4.24
2023-04-27T05:54:22.107Z,4.29
2023-04-27T05:56:51.277Z,4.35
2023-04-27T05:59:19.368Z,4.45
2023-04-27T06:01:47.106Z,4.57
2023-04-27T06:04:15.151Z,4.66
2023-04-27T06:06:44.818Z,4.74
2023-04-27T06:09:12.878Z,4.82
2023-04-27T06:11:40.879Z,4.87
2023-04-27T06:14:08.523Z,4.94
2023-04-27T06:16:36.528Z,5.01
2023-04-27T06:19:04.118Z,5.08
2023-04-27T06:21:35.111Z,5.16
2023-04-27T06:24:02.791Z,5.23
2023-04-27T06:26:30.418Z,5.31
2023-04-27T06:28:58.126Z,5.40
2023-04-27T06:31:26.848Z,5.50
2023-04-27T06:33:54.551Z,5.59
2023-04-27T06:36:22.292Z,5.66
2023-04-27T06:38:49.898Z,5.72
2023-04-27T06:41:17.508Z,5.78
2023-04-27T06:43:45.127Z,5.82
2023-04-27T06:46:12.761Z,5.87
2023-04-27T06:48:41.134Z,5.92
2023-04-27T06:51:08.749Z,5.98
2023-04-27T06:53:36.892Z,6.03
2023-04-27T06:56:04.917Z,6.08
2023-04-27T06:58:32.689Z,6.13
2023-04-27T07:01:00.315Z,6.20
2023-04-27T07:03:28.083Z,6.26
2023-04-27T07:05:57.341Z,6.32
2023-04-27T07:08:25.032Z,6.38
2023-04-27T07:10:52.646Z,6.42
2023-04-27T07:13:20.289Z,6.46
2023-04-27T07:15:47.994Z,6.50
2023-04-27T07:18:15.640Z,6.54
2023-04-27T07:20:43.286Z,6.57
2023-04-27T07:23:11.162Z,6.62
2023-04-27T07:25:40.330Z,6.68
2023-04-27T07:28:08.976Z,6.75
2023-04-27T07:30:37.018Z,6.85
2023-04-27T07:33:05.131Z,6.97
2023-04-27T07:35:32.995Z,7.10
2023-04-27T07:38:03.278Z,7.24
2023-04-27T07:40:32.895Z,7.39
2023-04-27T07:43:00.683Z,7.53
2023-04-27T07:45:32.448Z,7.66
2023-04-27T07:48:00.595Z,7.79
2023-04-27T07:50:30.124Z,7.90
2023-04-27T07:52:57.954Z,8.03
2023-04-27T07:55:25.836Z,8.15
2023-04-27T07:57:53.743Z,8.26
2023-04-27T08:00:22.212Z,8.34
2023-04-27T08:02:50.719Z,8.42
2023-04-27T08:05:19.038Z,8.50
2023-04-27T08:07:47.801Z,8.59
2023-04-27T08:10:15.911Z,8.66
2023-04-27T08:12:43.560Z,8.70
2023-04-27T08:15:11.573Z,8.73
2023-04-27T08:17:42.024Z,8.74
2023-04-27T08:20:11.621Z,8.75
2023-04-27T08:22:40.617Z,8.73
2023-04-27T08:25:09.041Z,8.76
2023-04-27T08:27:37.842Z,8.82
2023-04-27T08:30:06.280Z,8.87
2023-04-27T08:32:34.221Z,8.90
2023-04-27T08:35:01.979Z,8.95
2023-04-27T08:37:29.589Z,8.96
2023-04-27T08:39:57.187Z,8.94
2023-04-27T08:42:24.830Z,8.96
2023-04-27T08:44:52.444Z,9.00
2023-04-27T08:47:25.730Z,9.02
2023-04-27T08:49:56.054Z,9.04
2023-04-27T08:52:23.680Z,9.07
2023-04-27T08:54:51.440Z,9.12
2023-04-27T08:57:19.106Z,9.18
2023-04-27T08:59:46.730Z,9.25
2023-04-27T09:02:21.257Z,9.30
2023-04-27T09:04:49.063Z,9.36
2023-04-27T09:07:17.638Z,9.42
2023-04-27T09:09:45.365Z,9.55
2023-04-27T09:12:20.817Z,9.75
2023-04-27T09:15:06.262Z,10.02
2023-04-27T09:17:34.052Z,10.25
2023-04-27T09:20:10.260Z,10.37
2023-04-27T09:22:48.037Z,10.39
2023-04-27T09:25:29.378Z,10.44
2023-04-27T09:27:58.266Z,10.48
2023-04-27T09:30:29.469Z,10.50
2023-04-27T09:32:59.234Z,10.54
2023-04-27T09:35:29.218Z,10.50
2023-04-27T09:37:57.235Z,10.52
2023-04-27T09:40:30.790Z,10.51
2023-04-27T09:43:01.623Z,10.51
2023-04-27T09:45:29.406Z,10.55
2023-04-27T09:47:58.219Z,10.61
2023-04-27T09:50:25.927Z,10.66
2023-04-27T09:52:53.556Z,10.64
2023-04-27T09:55:25.942Z,10.63
2023-04-27T09:58:06.418Z,10.59
2023-04-27T10:01:04.824Z,10.49
2023-04-27T10:03:47.776Z,10.36
2023-04-27T10:06:36.282Z,10.25
2023-04-27T10:09:06.968Z,10.20
2023-04-27T10:11:42.111Z,10.26
2023-04-27T10:14:18.200Z,10.35
2023-04-27T10:16:56.777Z,10.43
2023-04-27T10:19:25.057Z,10.54
2023-04-27T10:21:53.959Z,10.59
2023-04-27T10:24:31.045Z,10.62
2023-04-27T10:27:05.856Z,10.62
2023-04-27T10:29:43.851Z,10.61
2023-04-27T10:32:19.162Z,10.56
2023-04-27T10:34:48.829Z,10.49
2023-04-27T10:37:16.835Z,10.43
2023-04-27T10:39:49.413Z,10.39
2023-04-27T10:42:30.522Z,10.38
2023-04-27T10:44:58.347Z,10.38
2023-04-27T10:47:36.601Z,10.39
2023-04-27T10:50:05.716Z,10.46
2023-04-27T10:52:33.428Z,10.58
2023-04-27T10:55:21.403Z,10.66
2023-04-27T10:57:53.331Z,10.71
2023-04-27T11:00:25.574Z,10.75
2023-04-27T11:02:54.167Z,10.74
2023-04-27T11:05:29.687Z,10.76
2023-04-27T11:08:07.759Z,10.78
2023-04-27T11:10:35.929Z,10.75
2023-04-27T11:13:31.038Z,10.71
2023-04-27T11:15:59.406Z,10.67
2023-04-27T11:18:31.689Z,10.67
2023-04-27T11:21:15.786Z,10.69
2023-04-27T11:23:43.697Z,10.69
2023-04-27T11:26:16.219Z,10.65
2023-04-27T11:28:44.358Z,10.66
2023-04-27T11:31:12.020Z,10.69
2023-04-27T11:33:40.332Z,10.66
2023-04-27T11:36:21.652Z,10.63
2023-04-27T11:38:49.430Z,10.55
2023-04-27T11:41:17.740Z,10.49
2023-04-27T11:43:49.773Z,10.44
2023-04-27T11:46:22.473Z,10.41
2023-04-27T11:48:50.732Z,10.38
2023-04-27T11:51:18.380Z,10.37
2023-04-27T11:53:47.812Z,10.40
2023-04-27T11:56:15.783Z,10.44
2023-04-27T11:58:46.266Z,10.52
2023-04-27T12:01:16.650Z,10.59
2023-04-27T12:03:47.653Z,10.66
2023-04-27T12:06:32.193Z,10.73
2023-04-27T12:09:01.278Z,10.81
2023-04-27T12:11:28.932Z,10.82
2023-04-27T12:13:56.965Z,10.87
2023-04-27T12:16:24.747Z,10.91
2023-04-27T12:18:52.441Z,10.99
2023-04-27T12:21:20.320Z,11.04
2023-04-27T12:23:47.922Z,11.08
2023-04-27T12:26:15.617Z,11.10
2023-04-27T12:28:43.727Z,11.10
2023-04-27T12:31:13.964Z,11.09
2023-04-27T12:33:41.753Z,11.05
2023-04-27T12:36:09.482Z,10.99
2023-04-27T12:38:37.566Z,10.89
2023-04-27T12:41:05.264Z,10.77
2023-04-27T12:43:33.014Z,10.70
2023-04-27T12:46:00.625Z,10.64
2023-04-27T12:48:28.608Z,10.57
2023-04-27T12:50:56.885Z,10.49
2023-04-27T12:53:24.515Z,10.43
2023-04-27T12:55:53.466Z,10.38
2023-04-27T12:58:21.678Z,10.35
2023-04-27T13:00:49.288Z,10.34
2023-04-27T13:03:17.067Z,10.34
2023-04-27T13:05:45.659Z,10.35
2023-04-27T13:08:13.352Z,10.38
2023-04-27T13:10:41.658Z,10.41
2023-04-27T13:13:09.282Z,10.43
2023-04-27T13:15:37.468Z,10.44
2023-04-27T13:18:06.602Z,10.45
2023-04-27T13:20:34.597Z,10.45
2023-04-27T13:23:04.803Z,10.45
2023-04-27T13:25:32.441Z,10.47
2023-04-27T13:28:00.126Z,10.47
2023-04-27T13:30:28.200Z,10.46
2023-04-27T13:33:04.396Z,10.46
2023-04-27T13:35:38.511Z,10.41
2023-04-27T13:38:06.292Z,10.39
2023-04-27T13:40:34.046Z,10.36
2023-04-27T13:43:01.630Z,10.32
2023-04-27T13:45:29.240Z,10.32
2023-04-27T13:47:56.846Z,10.31
2023-04-27T13:50:24.592Z,10.26
2023-04-27T13:52:52.202Z,10.21
2023-04-27T13:55:19.818Z,10.18
2023-04-27T13:57:47.422Z,10.16
2023-04-27T14:00:15.597Z,10.12
2023-04-27T14:02:43.269Z,10.13
2023-04-27T14:05:11.308Z,10.17
2023-04-27T14:07:38.874Z,10.21
2023-04-27T14:10:07.294Z,10.23
2023-04-27T14:12:35.937Z,10.25
2023-04-27T14:15:03.798Z,10.25
2023-04-27T14:17:31.459Z,10.25
2023-04-27T14:19:59.066Z,10.26
2023-04-27T14:22:26.800Z,10.32
2023-04-27T14:24:56.441Z,10.40
2023-04-27T14:27:24.155Z,10.49
2023-04-27T14:29:51.766Z,10.62
2023-04-27T14:32:19.476Z,10.79
2023-04-27T14:34:47.514Z,11.05
2023-04-27T14:37:15.183Z,11.42
2023-04-27T14:39:45.131Z,11.78
2023-04-27T14:42:13.257Z,12.20
2023-04-27T14:44:40.980Z,12.58
2023-04-27T14:47:08.734Z,12.98
2023-04-27T14:49:36.380Z,13.27
2023-04-27T14:52:06.558Z,13.51
2023-04-27T14:54:35.589Z,13.73
2023-04-27T14:57:03.582Z,13.86
2023-04-27T14:59:31.222Z,13.94
2023-04-27T15:01:58.976Z,13.90
2023-04-27T15:04:26.832Z,13.77
2023-04-27T15:06:54.550Z,13.67
2023-04-27T15:09:22.240Z,13.64
2023-04-27T15:11:49.986Z,13.66
2023-04-27T15:14:17.668Z,13.65
2023-04-27T15:16:45.358Z,13.63
2023-04-27T15:19:13.586Z,13.71
2023-04-27T15:21:41.469Z,13.76
2023-04-27T15:24:09.206Z,13.73
2023-04-27T15:26:36.863Z,13.62
2023-04-27T15:29:04.537Z,13.47
2023-04-27T15:31:32.239Z,13.37
2023-04-27T15:33:59.888Z,13.30
2023-04-27T15:36:28.360Z,13.24
2023-04-27T15:38:56.020Z,13.26
2023-04-27T15:41:23.685Z,13.25
2023-04-27T15:43:51.864Z,13.24
2023-04-27T15:46:19.620Z,13.10
2023-04-27T15:48:47.272Z,13.02
2023-04-27T15:51:15.109Z,12.96
2023-04-27T15:53:42.739Z,12.85
2023-04-27T15:56:10.341Z,12.78
2023-04-27T15:58:38.035Z,12.81
2023-04-27T16:01:05.757Z,12.72
2023-04-27T16:03:34.848Z,12.61
2023-04-27T16:06:02.704Z,12.58
2023-04-27T16:08:32.265Z,12.64
2023-04-27T16:11:00.786Z,12.71
2023-04-27T16:13:31.454Z,12.71
2023-04-27T16:15:59.530Z,12.58
2023-04-27T16:18:27.181Z,12.54
2023-04-27T16:20:55.123Z,12.53
2023-04-27T16:23:24.346Z,12.45
2023-04-27T16:25:52.457Z,12.36
2023-04-27T16:28:20.607Z,12.26
2023-04-27T16:30:48.229Z,12.17
2023-04-27T16:33:16.390Z,12.11
2023-04-27T16:35:44.049Z,12.00
2023-04-27T16:38:11.644Z,11.84
2023-04-27T16:40:39.271Z,11.67
2023-04-27T16:43:06.873Z,11.52
2023-04-27T16:45:34.568Z,11.37
2023-04-27T16:48:02.531Z,11.22
2023-04-27T16:50:31.742Z,11.08
2023-04-27T16:53:07.032Z,10.96
2023-04-27T16:55:35.060Z,10.88
2023-04-27T16:58:02.682Z,10.83
2023-04-27T17:00:30.483Z,10.78
2023-04-27T17:02:58.164Z,10.74
2023-04-27T17:05:26.004Z,10.73
2023-04-27T17:07:53.688Z,10.78
2023-04-27T17:10:21.468Z,10.85
2023-04-27T17:12:49.199Z,10.93
2023-04-27T17:15:18.325Z,10.95
2023-04-27T17:17:45.946Z,10.93
2023-04-27T17:20:13.599Z,10.91
2023-04-27T17:22:41.263Z,10.90
2023-04-27T17:25:09.271Z,10.89
2023-04-27T17:27:36.893Z,10.85
2023-04-27T17:30:05.187Z,10.76
2023-04-27T17:32:33.408Z,10.65
2023-04-27T17:35:01.137Z,10.50
2023-04-27T17:37:28.792Z,10.35
2023-04-27T17:39:56.439Z,10.18
2023-04-27T17:42:24.028Z,10.05
2023-04-27T17:44:51.734Z,9.92
2023-04-27T17:47:20.568Z,9.80
2023-04-27T17:49:48.239Z,9.67
2023-04-27T17:52:16.053Z,9.54
2023-04-27T17:54:43.648Z,9.42
2023-04-27T17:57:11.331Z,9.30
2023-04-27T17:59:38.939Z,9.19
2023-04-27T18:02:06.792Z,9.07
2023-04-27T18:04:34.685Z,8.95
2023-04-27T18:07:02.485Z,8.83
2023-04-27T18:09:32.752Z,8.72
2023-04-27T18:12:00.886Z,8.61
2023-04-27T18:14:28.526Z,8.50
2023-04-27T18:16:56.300Z,8.39
2023-04-27T18:19:24.022Z,8.28
2023-04-27T18:21:51.735Z,8.16
2023-04-27T18:24:19.380Z,8.06
2023-04-27T18:26:47.059Z,7.95
2023-04-27T18:29:14.875Z,7.84
2023-04-27T18:31:42.787Z,7.75
2023-04-27T18:34:10.743Z,7.65
2023-04-27T18:36:38.425Z,7.56
2023-04-27T18:39:06.373Z,7.46
2023-04-27T18:41:34.055Z,7.36
2023-04-27T18:44:05.918Z,7.24
2023-04-27T18:46:33.870Z,7.14
2023-04-27T18:49:01.856Z,7.04
2023-04-27T18:51:29.467Z,6.94
2023-04-27T18:53:57.123Z,6.87
2023-04-27T18:56:24.725Z,6.78
2023-04-27T18:58:53.316Z,6.71
2023-04-27T19:01:25.518Z,6.63
2023-04-27T19:03:53.705Z,6.57
2023-04-27T19:06:21.552Z,6.51
2023-04-27T19:08:49.312Z,6.45
2023-04-27T19:11:19.527Z,6.40
2023-04-27T19:13:47.110Z,6.35
2023-04-27T19:16:15.577Z,6.29
2023-04-27T19:18:43.521Z,6.24
2023-04-27T19:21:11.367Z,6.18
2023-04-27T19:23:39.166Z,6.13
2023-04-27T19:26:13.150Z,6.06
2023-04-27T19:28:41.791Z,5.98
2023-04-27T19:31:10.100Z,5.92
2023-04-27T19:33:38.088Z,5.86
2023-04-27T19:36:06.056Z,5.80
2023-04-27T19:38:34.303Z,5.74
2023-04-27T19:41:04.238Z,5.68
2023-04-27T19:43:32.024Z,5.63
2023-04-27T19:46:01.443Z,5.59
2023-04-27T19:48:29.098Z,5.54
2023-04-27T19:50:56.756Z,5.50
2023-04-27T19:53:24.443Z,5.45
2023-04-27T19:55:52.151Z,5.40
2023-04-27T19:58:19.759Z,5.34
2023-04-27T20:00:47.384Z,5.28
2023-04-27T20:03:16.354Z,5.23
2023-04-27T20:05:44.911Z,5.19
2023-04-27T20:08:12.790Z,5.16
2023-04-27T20:10:41.327Z,5.12
2023-04-27T20:13:09.907Z,5.10
2023-04-27T20:15:37.667Z,5.07
2023-04-27T20:18:05.698Z,5.06
2023-04-27T20:20:33.899Z,5.04
2023-04-27T20:23:01.516Z,5.03
2023-04-27T20:25:29.203Z,5.02
2023-04-27T20:27:56.801Z,5.01
2023-04-27T20:30:24.899Z,5.00
2023-04-27T20:32:52.702Z,4.97
2023-04-27T20:35:20.889Z,4.96
2023-04-27T20:37:48.985Z,4.95
2023-04-27T20:40:17.751Z,4.92
2023-04-27T20:42:45.823Z,4.89
2023-04-27T20:45:13.783Z,4.86
2023-04-27T20:47:42.125Z,4.82
2023-04-27T20:50:09.986Z,4.79
2023-04-27T20:52:37.693Z,4.74
2023-04-27T20:55:06.292Z,4.69
2023-04-27T20:57:33.927Z,4.64
2023-04-27T21:00:01.544Z,4.58
2023-04-27T21:02:29.317Z,4.52
2023-04-27T21:04:57.175Z,4.45
2023-04-27T21:07:24.933Z,4.38
2023-04-27T21:09:52.524Z,4.31
2023-04-27T21:12:20.202Z,4.28
2023-04-27T21:14:47.820Z,4.29
2023-04-27T21:17:15.650Z,4.30
2023-04-27T21:19:43.285Z,4.30
2023-04-27T21:22:11.081Z,4.27
2023-04-27T21:24:38.703Z,4.23
2023-04-27T21:27:06.499Z,4.21
2023-04-27T21:29:35.499Z,4.18
2023-04-27T21:32:03.216Z,4.17
2023-04-27T21:34:31.051Z,4.14
2023-04-27T21:36:58.633Z,4.13
2023-04-27T21:39:26.296Z,4.12
2023-04-27T21:41:53.927Z,4.11
2023-04-27T21:44:21.551Z,4.11
2023-04-27T21:46:49.275Z,4.11
2023-04-27T21:49:17.038Z,4.10
2023-04-27T21:51:44.602Z,4.10
2023-04-27T21:54:12.351Z,4.10
2023-04-27T21:56:40.217Z,4.11
2023-04-27T21:59:08.207Z,4.11
2023-04-27T22:01:35.877Z,4.11
2023-04-27T22:04:05.120Z,4.10
2023-04-27T22:06:33.609Z,4.10
2023-04-27T22:09:01.504Z,4.08
2023-04-27T22:11:29.157Z,4.07
2023-04-27T22:13:57.339Z,4.08
2023-04-27T22:16:25.184Z,4.12
2023-04-27T22:18:53.976Z,4.19
2023-04-27T22:21:21.708Z,4.27
2023-04-27T22:23:49.514Z,4.31
2023-04-27T22:26:17.193Z,4.35
2023-04-27T22:28:44.872Z,4.37
2023-04-27T22:31:12.488Z,4.38
2023-04-27T22:33:40.118Z,4.38
2023-04-27T22:36:08.197Z,4.38
2023-04-27T22:38:36.091Z,4.38
2023-04-27T22:41:03.891Z,4.36
2023-04-27T22:43:31.642Z,4.35
2023-04-27T22:45:59.248Z,4.34
2023-04-27T22:48:27.198Z,4.33
2023-04-27T22:50:54.795Z,4.32
2023-04-27T22:53:23.107Z,4.31
2023-04-27T22:55:51.034Z,4.30
2023-04-27T22:58:18.809Z,4.30
2023-04-27T23:00:46.450Z,4.29
2023-04-27T23:03:14.553Z,4.28
2023-04-27T23:05:43.262Z,4.28
2023-04-27T23:08:10.924Z,4.30
2023-04-27T23:10:38.985Z,4.36
2023-04-27T23:13:07.415Z,4.43
2023-04-27T23:15:35.137Z,4.50
2023-04-27T23:18:03.202Z,4.55
2023-04-27T23:20:31.180Z,4.60
2023-04-27T23:22:58.841Z,4.63
2023-04-27T23:25:26.534Z,4.64
2023-04-27T23:27:54.169Z,4.65
2023-04-27T23:30:22.481Z,4.63
2023-04-27T23:32:50.576Z,4.61
2023-04-27T23:35:18.412Z,4.58
2023-04-27T23:37:46.039Z,4.54
2023-04-27T23:40:14.395Z,4.51
2023-04-27T23:42:42.096Z,4.47
2023-04-27T23:45:10.370Z,4.44
2023-04-27T23:47:38.059Z,4.40
2023-04-27T23:50:06.299Z,4.36
2023-04-27T23:52:33.934Z,4.32
2023-04-27T23:55:01.806Z,4.29
2023-04-27T23:57:29.429Z,4.29
2023-04-27T23:59:57.032Z,4.32
